sensor_id;sensor_type;location;lat;lon;timestamp;P1;durP1;ratioP1;P2;durP2;ratioP2
11522;SDS011;40093;43.224;27.910;2022-11-03T00:01:06;174.53;;;119.20;;
11522;SDS011;40093;43.224;27.910;2022-11-03T00:03:34;105.73;;;76.10;;
11522;SDS011;40093;43.224;27.910;2022-11-03T00:06:02;75.97;;;53.47;;
11522;SDS011;40093;43.224;27.910;2022-11-03T00:08:35;55.13;;;40.50;;
11522;SDS011;40093;43.224;27.910;2022-11-03T00:11:07;32.17;;;21.50;;
11522;SDS011;40093;43.224;27.910;2022-11-03T00:13:36;36.00;;;23.43;;
11522;SDS011;40093;43.224;27.910;2022-11-03T00:16:04;40.23;;;24.53;;
11522;SDS011;40093;43.224;27.910;2022-11-03T00:18:34;34.50;;;24.83;;
11522;SDS011;40093;43.224;27.910;2022-11-03T00:21:02;30.80;;;18.83;;
11522;SDS011;40093;43.224;27.910;2022-11-03T00:23:30;33.50;;;23.03;;
11522;SDS011;40093;43.224;27.910;2022-11-03T00:26:03;18.37;;;11.33;;
11522;SDS011;40093;43.224;27.910;2022-11-03T00:28:31;19.87;;;12.13;;
11522;SDS011;40093;43.224;27.910;2022-11-03T00:30:58;17.53;;;11.67;;
11522;SDS011;40093;43.224;27.910;2022-11-03T00:33:30;17.40;;;11.90;;
11522;SDS011;40093;43.224;27.910;2022-11-03T00:35:58;19.13;;;12.20;;
11522;SDS011;40093;43.224;27.910;2022-11-03T00:38:27;18.63;;;12.40;;
11522;SDS011;40093;43.224;27.910;2022-11-03T00:40:55;22.03;;;14.60;;
11522;SDS011;40093;43.224;27.910;2022-11-03T00:43:22;16.10;;;11.60;;
11522;SDS011;40093;43.224;27.910;2022-11-03T00:45:50;17.83;;;11.70;;
11522;SDS011;40093;43.224;27.910;2022-11-03T00:48:18;19.20;;;13.00;;
11522;SDS011;40093;43.224;27.910;2022-11-03T00:51:03;17.17;;;12.30;;
11522;SDS011;40093;43.224;27.910;2022-11-03T00:53:32;20.03;;;13.77;;
11522;SDS011;40093;43.224;27.910;2022-11-03T00:56:00;22.13;;;15.63;;
11522;SDS011;40093;43.224;27.910;2022-11-03T00:58:27;22.13;;;14.43;;
11522;SDS011;40093;43.224;27.910;2022-11-03T01:00:58;18.10;;;14.23;;
11522;SDS011;40093;43.224;27.910;2022-11-03T01:03:26;19.50;;;15.47;;
11522;SDS011;40093;43.224;27.910;2022-11-03T01:05:53;19.87;;;14.60;;
11522;SDS011;40093;43.224;27.910;2022-11-03T01:08:39;20.60;;;15.10;;
11522;SDS011;40093;43.224;27.910;2022-11-03T01:11:06;22.13;;;15.00;;
11522;SDS011;40093;43.224;27.910;2022-11-03T01:13:52;18.97;;;12.97;;
11522;SDS011;40093;43.224;27.910;2022-11-03T01:16:19;19.23;;;13.33;;
11522;SDS011;40093;43.224;27.910;2022-11-03T01:18:46;18.93;;;13.30;;
11522;SDS011;40093;43.224;27.910;2022-11-03T01:21:13;16.27;;;12.63;;
11522;SDS011;40093;43.224;27.910;2022-11-03T01:23:42;20.23;;;12.73;;
11522;SDS011;40093;43.224;27.910;2022-11-03T01:26:09;15.23;;;10.93;;
11522;SDS011;40093;43.224;27.910;2022-11-03T01:28:37;16.53;;;11.17;;
11522;SDS011;40093;43.224;27.910;2022-11-03T01:31:06;15.10;;;11.47;;
11522;SDS011;40093;43.224;27.910;2022-11-03T01:33:35;14.53;;;11.07;;
11522;SDS011;40093;43.224;27.910;2022-11-03T01:36:02;17.30;;;11.53;;
11522;SDS011;40093;43.224;27.910;2022-11-03T01:38:30;14.93;;;11.83;;
11522;SDS011;40093;43.224;27.910;2022-11-03T01:40:59;16.93;;;11.50;;
11522;SDS011;40093;43.224;27.910;2022-11-03T01:43:26;18.37;;;12.33;;
11522;SDS011;40093;43.224;27.910;2022-11-03T01:45:57;20.20;;;11.43;;
11522;SDS011;40093;43.224;27.910;2022-11-03T01:48:29;14.63;;;11.47;;
11522;SDS011;40093;43.224;27.910;2022-11-03T01:50:58;16.47;;;12.23;;
11522;SDS011;40093;43.224;27.910;2022-11-03T01:53:27;16.83;;;11.03;;
11522;SDS011;40093;43.224;27.910;2022-11-03T01:55:56;15.80;;;11.03;;
11522;SDS011;40093;43.224;27.910;2022-11-03T01:58:27;17.00;;;11.00;;
11522;SDS011;40093;43.224;27.910;2022-11-03T02:00:56;17.77;;;10.83;;
11522;SDS011;40093;43.224;27.910;2022-11-03T02:03:26;12.87;;;10.07;;
11522;SDS011;40093;43.224;27.910;2022-11-03T02:05:57;14.67;;;10.80;;
11522;SDS011;40093;43.224;27.910;2022-11-03T02:08:25;15.83;;;10.77;;
11522;SDS011;40093;43.224;27.910;2022-11-03T02:10:56;14.70;;;11.00;;
11522;SDS011;40093;43.224;27.910;2022-11-03T02:13:24;14.80;;;11.57;;
11522;SDS011;40093;43.224;27.910;2022-11-03T02:15:54;16.67;;;12.73;;
11522;SDS011;40093;43.224;27.910;2022-11-03T02:18:25;20.53;;;12.77;;
11522;SDS011;40093;43.224;27.910;2022-11-03T02:20:56;20.47;;;14.10;;
11522;SDS011;40093;43.224;27.910;2022-11-03T02:23:30;20.93;;;13.73;;
11522;SDS011;40093;43.224;27.910;2022-11-03T02:26:04;18.70;;;13.63;;
11522;SDS011;40093;43.224;27.910;2022-11-03T02:28:33;20.53;;;14.20;;
11522;SDS011;40093;43.224;27.910;2022-11-03T02:31:03;21.70;;;14.73;;
11522;SDS011;40093;43.224;27.910;2022-11-03T02:33:40;24.67;;;14.63;;
11522;SDS011;40093;43.224;27.910;2022-11-03T02:36:14;20.50;;;14.50;;
11522;SDS011;40093;43.224;27.910;2022-11-03T02:38:47;19.90;;;14.40;;
11522;SDS011;40093;43.224;27.910;2022-11-03T02:41:20;19.93;;;14.97;;
11522;SDS011;40093;43.224;27.910;2022-11-03T02:43:48;23.00;;;15.70;;
11522;SDS011;40093;43.224;27.910;2022-11-03T02:46:16;23.97;;;15.30;;
11522;SDS011;40093;43.224;27.910;2022-11-03T02:48:44;21.43;;;15.40;;
11522;SDS011;40093;43.224;27.910;2022-11-03T02:51:11;21.17;;;15.60;;
11522;SDS011;40093;43.224;27.910;2022-11-03T02:53:41;21.03;;;15.63;;
11522;SDS011;40093;43.224;27.910;2022-11-03T02:56:14;23.07;;;16.47;;
11522;SDS011;40093;43.224;27.910;2022-11-03T02:58:49;24.13;;;15.87;;
11522;SDS011;40093;43.224;27.910;2022-11-03T03:01:23;22.87;;;16.63;;
11522;SDS011;40093;43.224;27.910;2022-11-03T03:03:54;22.60;;;16.00;;
11522;SDS011;40093;43.224;27.910;2022-11-03T03:06:24;25.43;;;15.60;;
11522;SDS011;40093;43.224;27.910;2022-11-03T03:08:55;25.80;;;15.53;;
11522;SDS011;40093;43.224;27.910;2022-11-03T03:11:26;23.50;;;15.23;;
11522;SDS011;40093;43.224;27.910;2022-11-03T03:14:04;21.90;;;15.63;;
11522;SDS011;40093;43.224;27.910;2022-11-03T03:16:34;22.83;;;15.50;;
11522;SDS011;40093;43.224;27.910;2022-11-03T03:19:11;22.57;;;15.00;;
11522;SDS011;40093;43.224;27.910;2022-11-03T03:22:00;19.27;;;15.13;;
11522;SDS011;40093;43.224;27.910;2022-11-03T03:24:32;20.23;;;14.43;;
11522;SDS011;40093;43.224;27.910;2022-11-03T03:27:04;25.00;;;15.63;;
11522;SDS011;40093;43.224;27.910;2022-11-03T03:29:39;21.53;;;15.30;;
11522;SDS011;40093;43.224;27.910;2022-11-03T03:32:10;25.13;;;14.63;;
11522;SDS011;40093;43.224;27.910;2022-11-03T03:34:42;20.37;;;15.43;;
11522;SDS011;40093;43.224;27.910;2022-11-03T03:37:13;22.00;;;15.00;;
11522;SDS011;40093;43.224;27.910;2022-11-03T03:39:43;19.93;;;14.73;;
11522;SDS011;40093;43.224;27.910;2022-11-03T03:42:14;21.93;;;14.50;;
11522;SDS011;40093;43.224;27.910;2022-11-03T03:44:44;15.17;;;12.87;;
11522;SDS011;40093;43.224;27.910;2022-11-03T03:47:13;19.70;;;13.73;;
11522;SDS011;40093;43.224;27.910;2022-11-03T03:49:43;18.40;;;13.10;;
11522;SDS011;40093;43.224;27.910;2022-11-03T03:52:10;16.47;;;12.73;;
11522;SDS011;40093;43.224;27.910;2022-11-03T03:54:37;14.87;;;12.23;;
11522;SDS011;40093;43.224;27.910;2022-11-03T03:57:04;13.63;;;11.33;;
11522;SDS011;40093;43.224;27.910;2022-11-03T03:59:36;14.93;;;11.93;;
11522;SDS011;40093;43.224;27.910;2022-11-03T04:02:04;19.63;;;11.93;;
11522;SDS011;40093;43.224;27.910;2022-11-03T04:04:31;15.47;;;11.70;;
11522;SDS011;40093;43.224;27.910;2022-11-03T04:06:59;18.00;;;13.10;;
11522;SDS011;40093;43.224;27.910;2022-11-03T04:09:43;16.77;;;12.17;;
11522;SDS011;40093;43.224;27.910;2022-11-03T04:12:10;14.10;;;11.40;;
11522;SDS011;40093;43.224;27.910;2022-11-03T04:14:54;16.53;;;12.10;;
11522;SDS011;40093;43.224;27.910;2022-11-03T04:17:41;15.60;;;11.90;;
11522;SDS011;40093;43.224;27.910;2022-11-03T04:20:26;16.83;;;12.93;;
11522;SDS011;40093;43.224;27.910;2022-11-03T04:23:11;17.40;;;13.03;;
11522;SDS011;40093;43.224;27.910;2022-11-03T04:25:37;18.27;;;13.40;;
11522;SDS011;40093;43.224;27.910;2022-11-03T04:28:07;18.40;;;13.10;;
11522;SDS011;40093;43.224;27.910;2022-11-03T04:30:36;20.50;;;15.00;;
11522;SDS011;40093;43.224;27.910;2022-11-03T04:33:04;17.30;;;13.40;;
11522;SDS011;40093;43.224;27.910;2022-11-03T04:35:39;18.87;;;12.73;;
11522;SDS011;40093;43.224;27.910;2022-11-03T04:38:17;17.87;;;13.60;;
11522;SDS011;40093;43.224;27.910;2022-11-03T04:40:48;19.80;;;14.00;;
11522;SDS011;40093;43.224;27.910;2022-11-03T04:43:19;19.13;;;13.83;;
11522;SDS011;40093;43.224;27.910;2022-11-03T04:45:48;16.60;;;12.93;;
11522;SDS011;40093;43.224;27.910;2022-11-03T04:48:17;18.73;;;13.27;;
11522;SDS011;40093;43.224;27.910;2022-11-03T04:50:47;20.10;;;14.90;;
11522;SDS011;40093;43.224;27.910;2022-11-03T04:53:17;19.07;;;13.60;;
11522;SDS011;40093;43.224;27.910;2022-11-03T04:55:46;20.10;;;14.63;;
11522;SDS011;40093;43.224;27.910;2022-11-03T04:58:16;18.53;;;14.03;;
11522;SDS011;40093;43.224;27.910;2022-11-03T05:00:45;19.87;;;15.20;;
11522;SDS011;40093;43.224;27.910;2022-11-03T05:03:13;19.57;;;14.20;;
11522;SDS011;40093;43.224;27.910;2022-11-03T05:05:44;20.27;;;14.10;;
11522;SDS011;40093;43.224;27.910;2022-11-03T05:08:11;24.83;;;18.37;;
11522;SDS011;40093;43.224;27.910;2022-11-03T05:10:38;23.17;;;17.10;;
11522;SDS011;40093;43.224;27.910;2022-11-03T05:13:08;26.10;;;17.17;;
11522;SDS011;40093;43.224;27.910;2022-11-03T05:15:42;27.90;;;18.30;;
11522;SDS011;40093;43.224;27.910;2022-11-03T05:18:13;27.70;;;17.80;;
11522;SDS011;40093;43.224;27.910;2022-11-03T05:20:46;26.43;;;18.00;;
11522;SDS011;40093;43.224;27.910;2022-11-03T05:23:16;28.27;;;18.47;;
11522;SDS011;40093;43.224;27.910;2022-11-03T05:25:45;31.00;;;18.87;;
11522;SDS011;40093;43.224;27.910;2022-11-03T05:28:18;32.73;;;19.13;;
11522;SDS011;40093;43.224;27.910;2022-11-03T05:30:48;29.87;;;19.10;;
11522;SDS011;40093;43.224;27.910;2022-11-03T05:33:25;25.00;;;18.27;;
11522;SDS011;40093;43.224;27.910;2022-11-03T05:35:55;29.83;;;18.40;;
11522;SDS011;40093;43.224;27.910;2022-11-03T05:38:26;27.73;;;17.63;;
11522;SDS011;40093;43.224;27.910;2022-11-03T05:40:56;34.27;;;20.57;;
11522;SDS011;40093;43.224;27.910;2022-11-03T05:43:23;31.93;;;20.07;;
11522;SDS011;40093;43.224;27.910;2022-11-03T05:45:54;30.83;;;19.87;;
11522;SDS011;40093;43.224;27.910;2022-11-03T05:48:25;28.30;;;19.83;;
11522;SDS011;40093;43.224;27.910;2022-11-03T05:50:57;26.80;;;18.10;;
11522;SDS011;40093;43.224;27.910;2022-11-03T05:53:27;29.80;;;21.03;;
11522;SDS011;40093;43.224;27.910;2022-11-03T05:55:56;31.17;;;21.20;;
11522;SDS011;40093;43.224;27.910;2022-11-03T05:58:26;28.80;;;19.43;;
11522;SDS011;40093;43.224;27.910;2022-11-03T06:00:56;28.57;;;18.83;;
11522;SDS011;40093;43.224;27.910;2022-11-03T06:03:27;27.60;;;19.37;;
11522;SDS011;40093;43.224;27.910;2022-11-03T06:05:55;28.80;;;18.90;;
11522;SDS011;40093;43.224;27.910;2022-11-03T06:08:25;27.17;;;19.23;;
11522;SDS011;40093;43.224;27.910;2022-11-03T06:10:56;32.30;;;19.23;;
11522;SDS011;40093;43.224;27.910;2022-11-03T06:13:25;31.07;;;20.07;;
11522;SDS011;40093;43.224;27.910;2022-11-03T06:15:56;40.23;;;20.57;;
11522;SDS011;40093;43.224;27.910;2022-11-03T06:18:28;29.70;;;19.07;;
11522;SDS011;40093;43.224;27.910;2022-11-03T06:21:01;26.30;;;19.20;;
11522;SDS011;40093;43.224;27.910;2022-11-03T06:23:32;29.83;;;19.40;;
11522;SDS011;40093;43.224;27.910;2022-11-03T06:26:02;30.00;;;18.30;;
11522;SDS011;40093;43.224;27.910;2022-11-03T06:28:30;30.07;;;19.67;;
11522;SDS011;40093;43.224;27.910;2022-11-03T06:31:03;26.97;;;19.07;;
11522;SDS011;40093;43.224;27.910;2022-11-03T06:33:32;34.00;;;20.60;;
11522;SDS011;40093;43.224;27.910;2022-11-03T06:36:02;30.20;;;19.07;;
11522;SDS011;40093;43.224;27.910;2022-11-03T06:38:38;30.97;;;19.33;;
11522;SDS011;40093;43.224;27.910;2022-11-03T06:41:06;30.97;;;20.77;;
11522;SDS011;40093;43.224;27.910;2022-11-03T06:43:46;31.87;;;22.10;;
11522;SDS011;40093;43.224;27.910;2022-11-03T06:46:13;32.33;;;18.73;;
11522;SDS011;40093;43.224;27.910;2022-11-03T06:48:45;31.33;;;19.93;;
11522;SDS011;40093;43.224;27.910;2022-11-03T06:51:18;27.40;;;20.57;;
11522;SDS011;40093;43.224;27.910;2022-11-03T06:53:46;33.30;;;19.90;;
11522;SDS011;40093;43.224;27.910;2022-11-03T06:56:14;26.20;;;19.50;;
11522;SDS011;40093;43.224;27.910;2022-11-03T06:58:43;43.20;;;24.43;;
11522;SDS011;40093;43.224;27.910;2022-11-03T07:01:13;31.30;;;22.67;;
11522;SDS011;40093;43.224;27.910;2022-11-03T07:03:41;33.83;;;22.43;;
11522;SDS011;40093;43.224;27.910;2022-11-03T07:06:18;36.67;;;21.73;;
11522;SDS011;40093;43.224;27.910;2022-11-03T07:08:48;32.40;;;21.63;;
11522;SDS011;40093;43.224;27.910;2022-11-03T07:11:18;33.13;;;21.67;;
11522;SDS011;40093;43.224;27.910;2022-11-03T07:13:46;32.53;;;20.90;;
11522;SDS011;40093;43.224;27.910;2022-11-03T07:16:16;37.40;;;23.63;;
11522;SDS011;40093;43.224;27.910;2022-11-03T07:18:49;40.87;;;25.70;;
11522;SDS011;40093;43.224;27.910;2022-11-03T07:21:30;31.73;;;21.57;;
11522;SDS011;40093;43.224;27.910;2022-11-03T07:24:00;28.57;;;20.27;;
11522;SDS011;40093;43.224;27.910;2022-11-03T07:26:31;27.70;;;19.10;;
11522;SDS011;40093;43.224;27.910;2022-11-03T07:28:59;34.13;;;25.20;;
11522;SDS011;40093;43.224;27.910;2022-11-03T07:31:26;100.50;;;77.40;;
11522;SDS011;40093;43.224;27.910;2022-11-03T07:33:56;33.10;;;20.40;;
11522;SDS011;40093;43.224;27.910;2022-11-03T07:36:24;29.57;;;19.20;;
11522;SDS011;40093;43.224;27.910;2022-11-03T07:38:58;32.07;;;18.80;;
11522;SDS011;40093;43.224;27.910;2022-11-03T07:41:27;29.20;;;18.33;;
11522;SDS011;40093;43.224;27.910;2022-11-03T07:43:57;33.27;;;18.67;;
11522;SDS011;40093;43.224;27.910;2022-11-03T07:46:26;30.10;;;18.50;;
11522;SDS011;40093;43.224;27.910;2022-11-03T07:48:53;27.83;;;18.07;;
11522;SDS011;40093;43.224;27.910;2022-11-03T07:51:22;28.77;;;16.70;;
11522;SDS011;40093;43.224;27.910;2022-11-03T07:53:51;29.83;;;20.70;;
11522;SDS011;40093;43.224;27.910;2022-11-03T07:56:22;26.77;;;18.80;;
11522;SDS011;40093;43.224;27.910;2022-11-03T07:58:51;24.27;;;17.33;;
11522;SDS011;40093;43.224;27.910;2022-11-03T08:01:21;21.20;;;15.03;;
11522;SDS011;40093;43.224;27.910;2022-11-03T08:03:50;27.70;;;17.07;;
11522;SDS011;40093;43.224;27.910;2022-11-03T08:06:21;21.50;;;15.27;;
11522;SDS011;40093;43.224;27.910;2022-11-03T08:08:47;24.30;;;18.03;;
11522;SDS011;40093;43.224;27.910;2022-11-03T08:11:14;21.27;;;16.27;;
11522;SDS011;40093;43.224;27.910;2022-11-03T08:13:43;23.80;;;15.93;;
11522;SDS011;40093;43.224;27.910;2022-11-03T08:16:11;18.00;;;13.33;;
11522;SDS011;40093;43.224;27.910;2022-11-03T08:18:38;16.07;;;11.57;;
11522;SDS011;40093;43.224;27.910;2022-11-03T08:21:04;11.20;;;9.70;;
11522;SDS011;40093;43.224;27.910;2022-11-03T08:23:31;11.23;;;8.67;;
11522;SDS011;40093;43.224;27.910;2022-11-03T08:25:58;8.83;;;7.93;;
11522;SDS011;40093;43.224;27.910;2022-11-03T08:28:25;9.17;;;7.07;;
11522;SDS011;40093;43.224;27.910;2022-11-03T08:30:54;10.63;;;8.37;;
11522;SDS011;40093;43.224;27.910;2022-11-03T08:33:25;10.87;;;7.60;;
11522;SDS011;40093;43.224;27.910;2022-11-03T08:35:52;8.87;;;7.97;;
11522;SDS011;40093;43.224;27.910;2022-11-03T08:38:19;11.23;;;7.17;;
11522;SDS011;40093;43.224;27.910;2022-11-03T08:40:46;9.73;;;6.80;;
11522;SDS011;40093;43.224;27.910;2022-11-03T08:43:13;7.83;;;6.60;;
11522;SDS011;40093;43.224;27.910;2022-11-03T08:45:40;9.17;;;6.77;;
11522;SDS011;40093;43.224;27.910;2022-11-03T08:48:08;9.63;;;6.33;;
11522;SDS011;40093;43.224;27.910;2022-11-03T08:50:35;9.63;;;7.60;;
11522;SDS011;40093;43.224;27.910;2022-11-03T08:53:02;9.03;;;7.30;;
11522;SDS011;40093;43.224;27.910;2022-11-03T08:55:29;10.60;;;8.13;;
11522;SDS011;40093;43.224;27.910;2022-11-03T08:57:56;9.13;;;7.33;;
11522;SDS011;40093;43.224;27.910;2022-11-03T09:00:22;11.97;;;8.63;;
11522;SDS011;40093;43.224;27.910;2022-11-03T09:02:49;13.10;;;10.20;;
11522;SDS011;40093;43.224;27.910;2022-11-03T09:05:18;14.13;;;11.90;;
11522;SDS011;40093;43.224;27.910;2022-11-03T09:07:44;17.77;;;11.93;;
11522;SDS011;40093;43.224;27.910;2022-11-03T09:10:11;15.30;;;10.93;;
11522;SDS011;40093;43.224;27.910;2022-11-03T09:12:38;18.70;;;13.63;;
11522;SDS011;40093;43.224;27.910;2022-11-03T09:15:05;22.20;;;14.17;;
11522;SDS011;40093;43.224;27.910;2022-11-03T09:17:33;19.27;;;12.43;;
11522;SDS011;40093;43.224;27.910;2022-11-03T09:20:00;19.13;;;13.70;;
11522;SDS011;40093;43.224;27.910;2022-11-03T09:22:28;16.07;;;12.73;;
11522;SDS011;40093;43.224;27.910;2022-11-03T09:24:55;19.50;;;13.23;;
11522;SDS011;40093;43.224;27.910;2022-11-03T09:27:22;18.83;;;12.90;;
11522;SDS011;40093;43.224;27.910;2022-11-03T09:29:49;18.30;;;12.30;;
11522;SDS011;40093;43.224;27.910;2022-11-03T09:32:16;18.73;;;12.73;;
11522;SDS011;40093;43.224;27.910;2022-11-03T09:34:43;17.57;;;11.77;;
11522;SDS011;40093;43.224;27.910;2022-11-03T09:37:10;15.63;;;11.40;;
11522;SDS011;40093;43.224;27.910;2022-11-03T09:39:38;14.57;;;10.30;;
11522;SDS011;40093;43.224;27.910;2022-11-03T09:42:05;15.17;;;12.17;;
11522;SDS011;40093;43.224;27.910;2022-11-03T09:44:32;16.83;;;11.73;;
11522;SDS011;40093;43.224;27.910;2022-11-03T09:47:00;14.47;;;11.73;;
11522;SDS011;40093;43.224;27.910;2022-11-03T09:49:29;17.23;;;11.90;;
11522;SDS011;40093;43.224;27.910;2022-11-03T09:51:58;17.37;;;12.10;;
11522;SDS011;40093;43.224;27.910;2022-11-03T09:54:25;16.17;;;11.87;;
11522;SDS011;40093;43.224;27.910;2022-11-03T09:56:56;13.57;;;11.67;;
11522;SDS011;40093;43.224;27.910;2022-11-03T09:59:30;16.33;;;11.80;;
11522;SDS011;40093;43.224;27.910;2022-11-03T10:01:57;14.10;;;11.90;;
11522;SDS011;40093;43.224;27.910;2022-11-03T10:04:25;13.53;;;11.00;;
11522;SDS011;40093;43.224;27.910;2022-11-03T10:06:53;12.63;;;10.93;;
11522;SDS011;40093;43.224;27.910;2022-11-03T10:09:20;13.37;;;11.60;;
11522;SDS011;40093;43.224;27.910;2022-11-03T10:11:52;13.00;;;10.67;;
11522;SDS011;40093;43.224;27.910;2022-11-03T10:14:22;14.40;;;11.90;;
11522;SDS011;40093;43.224;27.910;2022-11-03T10:16:51;15.83;;;11.80;;
11522;SDS011;40093;43.224;27.910;2022-11-03T10:19:22;14.53;;;11.50;;
11522;SDS011;40093;43.224;27.910;2022-11-03T10:21:49;15.53;;;11.23;;
11522;SDS011;40093;43.224;27.910;2022-11-03T10:24:16;14.77;;;11.20;;
11522;SDS011;40093;43.224;27.910;2022-11-03T10:26:44;14.83;;;11.43;;
11522;SDS011;40093;43.224;27.910;2022-11-03T10:29:16;16.20;;;11.30;;
11522;SDS011;40093;43.224;27.910;2022-11-03T10:31:46;16.40;;;11.33;;
11522;SDS011;40093;43.224;27.910;2022-11-03T10:34:25;10.80;;;9.70;;
11522;SDS011;40093;43.224;27.910;2022-11-03T10:37:08;12.07;;;10.87;;
11522;SDS011;40093;43.224;27.910;2022-11-03T10:39:37;15.00;;;11.20;;
11522;SDS011;40093;43.224;27.910;2022-11-03T10:42:04;12.43;;;11.13;;
11522;SDS011;40093;43.224;27.910;2022-11-03T10:44:31;12.43;;;11.13;;
11522;SDS011;40093;43.224;27.910;2022-11-03T10:46:59;12.37;;;10.90;;
11522;SDS011;40093;43.224;27.910;2022-11-03T10:49:27;13.63;;;11.77;;
11522;SDS011;40093;43.224;27.910;2022-11-03T10:51:57;14.47;;;11.67;;
11522;SDS011;40093;43.224;27.910;2022-11-03T10:54:35;14.87;;;11.57;;
11522;SDS011;40093;43.224;27.910;2022-11-03T10:57:02;14.00;;;11.23;;
11522;SDS011;40093;43.224;27.910;2022-11-03T10:59:30;12.40;;;11.10;;
11522;SDS011;40093;43.224;27.910;2022-11-03T11:02:02;13.67;;;11.10;;
11522;SDS011;40093;43.224;27.910;2022-11-03T11:04:36;12.70;;;10.47;;
11522;SDS011;40093;43.224;27.910;2022-11-03T11:07:10;12.63;;;10.80;;
11522;SDS011;40093;43.224;27.910;2022-11-03T11:09:43;12.03;;;10.83;;
11522;SDS011;40093;43.224;27.910;2022-11-03T11:12:13;13.20;;;10.87;;
11522;SDS011;40093;43.224;27.910;2022-11-03T11:14:50;17.40;;;11.03;;
11522;SDS011;40093;43.224;27.910;2022-11-03T11:17:40;14.50;;;11.40;;
11522;SDS011;40093;43.224;27.910;2022-11-03T11:26:13;15.37;;;11.57;;
11522;SDS011;40093;43.224;27.910;2022-11-03T11:28:42;15.40;;;11.37;;
11522;SDS011;40093;43.224;27.910;2022-11-03T11:31:26;12.87;;;11.23;;
11522;SDS011;40093;43.224;27.910;2022-11-03T11:39:56;14.33;;;9.60;;
11522;SDS011;40093;43.224;27.910;2022-11-03T11:42:23;11.30;;;10.10;;
11522;SDS011;40093;43.224;27.910;2022-11-03T11:47:45;14.70;;;10.60;;
11522;SDS011;40093;43.224;27.910;2022-11-03T11:50:19;12.00;;;10.30;;
11522;SDS011;40093;43.224;27.910;2022-11-03T11:52:49;16.60;;;10.83;;
11522;SDS011;40093;43.224;27.910;2022-11-03T11:55:26;12.53;;;9.97;;
11522;SDS011;40093;43.224;27.910;2022-11-03T11:57:57;13.83;;;10.77;;
11522;SDS011;40093;43.224;27.910;2022-11-03T12:00:26;14.80;;;10.30;;
11522;SDS011;40093;43.224;27.910;2022-11-03T12:02:55;12.10;;;10.70;;
11522;SDS011;40093;43.224;27.910;2022-11-03T12:05:25;14.47;;;11.23;;
11522;SDS011;40093;43.224;27.910;2022-11-03T12:07:55;13.73;;;11.90;;
11522;SDS011;40093;43.224;27.910;2022-11-03T12:10:23;15.13;;;11.37;;
11522;SDS011;40093;43.224;27.910;2022-11-03T12:12:53;13.50;;;11.30;;
11522;SDS011;40093;43.224;27.910;2022-11-03T12:18:27;16.80;;;12.63;;
11522;SDS011;40093;43.224;27.910;2022-11-03T12:20:58;15.37;;;11.60;;
11522;SDS011;40093;43.224;27.910;2022-11-03T12:23:36;14.60;;;11.90;;
11522;SDS011;40093;43.224;27.910;2022-11-03T12:26:13;14.67;;;12.03;;
11522;SDS011;40093;43.224;27.910;2022-11-03T12:28:43;13.33;;;11.77;;
11522;SDS011;40093;43.224;27.910;2022-11-03T12:31:10;15.33;;;11.77;;
11522;SDS011;40093;43.224;27.910;2022-11-03T12:33:37;15.17;;;12.00;;
11522;SDS011;40093;43.224;27.910;2022-11-03T12:36:04;13.40;;;11.40;;
11522;SDS011;40093;43.224;27.910;2022-11-03T12:38:32;15.87;;;11.87;;
11522;SDS011;40093;43.224;27.910;2022-11-03T12:40:59;13.40;;;12.00;;
11522;SDS011;40093;43.224;27.910;2022-11-03T12:43:46;14.73;;;12.57;;
11522;SDS011;40093;43.224;27.910;2022-11-03T12:46:14;16.43;;;12.73;;
11522;SDS011;40093;43.224;27.910;2022-11-03T12:48:41;14.07;;;12.47;;
11522;SDS011;40093;43.224;27.910;2022-11-03T12:51:12;15.67;;;12.90;;
11522;SDS011;40093;43.224;27.910;2022-11-03T12:53:40;15.23;;;13.03;;
11522;SDS011;40093;43.224;27.910;2022-11-03T12:56:07;16.13;;;13.07;;
11522;SDS011;40093;43.224;27.910;2022-11-03T12:58:35;17.17;;;13.60;;
11522;SDS011;40093;43.224;27.910;2022-11-03T13:01:04;15.57;;;12.93;;
11522;SDS011;40093;43.224;27.910;2022-11-03T13:03:32;15.53;;;12.37;;
11522;SDS011;40093;43.224;27.910;2022-11-03T13:05:59;18.10;;;13.33;;
11522;SDS011;40093;43.224;27.910;2022-11-03T13:08:28;16.33;;;13.47;;
11522;SDS011;40093;43.224;27.910;2022-11-03T13:10:55;16.83;;;12.57;;
11522;SDS011;40093;43.224;27.910;2022-11-03T13:13:22;15.50;;;13.37;;
11522;SDS011;40093;43.224;27.910;2022-11-03T13:15:49;16.80;;;13.50;;
11522;SDS011;40093;43.224;27.910;2022-11-03T13:18:18;14.97;;;11.67;;
11522;SDS011;40093;43.224;27.910;2022-11-03T13:20:46;14.20;;;12.40;;
11522;SDS011;40093;43.224;27.910;2022-11-03T13:23:13;13.80;;;11.97;;
11522;SDS011;40093;43.224;27.910;2022-11-03T13:25:40;13.73;;;12.10;;
11522;SDS011;40093;43.224;27.910;2022-11-03T13:28:07;15.13;;;12.90;;
11522;SDS011;40093;43.224;27.910;2022-11-03T13:30:34;19.97;;;14.47;;
11522;SDS011;40093;43.224;27.910;2022-11-03T13:33:00;14.47;;;12.73;;
11522;SDS011;40093;43.224;27.910;2022-11-03T13:35:29;20.17;;;13.37;;
11522;SDS011;40093;43.224;27.910;2022-11-03T13:37:56;15.17;;;13.00;;
11522;SDS011;40093;43.224;27.910;2022-11-03T13:40:22;18.27;;;12.50;;
11522;SDS011;40093;43.224;27.910;2022-11-03T13:42:49;18.83;;;13.53;;
11522;SDS011;40093;43.224;27.910;2022-11-03T13:45:16;15.17;;;12.97;;
11522;SDS011;40093;43.224;27.910;2022-11-03T13:47:43;16.47;;;12.47;;
11522;SDS011;40093;43.224;27.910;2022-11-03T13:50:10;16.73;;;12.67;;
11522;SDS011;40093;43.224;27.910;2022-11-03T13:52:38;16.83;;;13.30;;
11522;SDS011;40093;43.224;27.910;2022-11-03T13:55:05;16.17;;;13.73;;
11522;SDS011;40093;43.224;27.910;2022-11-03T13:57:32;20.10;;;13.20;;
11522;SDS011;40093;43.224;27.910;2022-11-03T13:59:59;15.07;;;11.63;;
11522;SDS011;40093;43.224;27.910;2022-11-03T14:02:27;15.00;;;13.03;;
11522;SDS011;40093;43.224;27.910;2022-11-03T14:04:54;16.67;;;13.83;;
11522;SDS011;40093;43.224;27.910;2022-11-03T14:07:21;18.03;;;14.23;;
11522;SDS011;40093;43.224;27.910;2022-11-03T14:09:49;19.77;;;14.90;;
11522;SDS011;40093;43.224;27.910;2022-11-03T14:12:16;17.87;;;13.57;;
11522;SDS011;40093;43.224;27.910;2022-11-03T14:14:59;15.60;;;12.77;;
11522;SDS011;40093;43.224;27.910;2022-11-03T14:17:28;16.63;;;12.73;;
11522;SDS011;40093;43.224;27.910;2022-11-03T14:19:55;17.20;;;13.97;;
11522;SDS011;40093;43.224;27.910;2022-11-03T14:22:23;15.07;;;12.80;;
11522;SDS011;40093;43.224;27.910;2022-11-03T14:24:52;18.60;;;14.07;;
11522;SDS011;40093;43.224;27.910;2022-11-03T14:27:19;18.47;;;14.53;;
11522;SDS011;40093;43.224;27.910;2022-11-03T14:29:46;17.77;;;13.60;;
11522;SDS011;40093;43.224;27.910;2022-11-03T14:32:14;22.37;;;15.13;;
11522;SDS011;40093;43.224;27.910;2022-11-03T14:34:42;18.20;;;14.07;;
11522;SDS011;40093;43.224;27.910;2022-11-03T14:37:09;17.27;;;13.53;;
11522;SDS011;40093;43.224;27.910;2022-11-03T14:39:36;14.20;;;12.33;;
11522;SDS011;40093;43.224;27.910;2022-11-03T14:42:05;16.20;;;14.27;;
11522;SDS011;40093;43.224;27.910;2022-11-03T14:44:39;19.43;;;15.53;;